Airfield :
LOGIN :

Register | Disclaimer

   EN    FR    IT 

 










Legend :    VFR   Marginal VFR   IFR   Intensive IFR   Very Intensive IFR
Visi :
Ceiling :
>= 8 km
>= 3000ft
5 to 8 km
1000 to 3000 ft
1500m to 5 km
500 to 1000 ft
800 to 1500m
200 to 500 ft
< 800m
< 200 ft
Symbols :   Thunderstorms  Fog  Heavy snow  Heavy precipitations  Wind > 20 kt
SIGMETs :     Misc.  Thunderstorms  Icing  Turbulence  Mountain Waves  Volcanic Ashes







- Airport Elevation : 390 ft
- IATA code : NQY
- Download approach charts


EGHQ - Newquay

CURRENT METAR :
  • 240920Z 02006KT 350V050 9999 BKN013 15/13 Q1027

EXPIRED METARs :
  • 240850Z 03006KT 9999 BKN011 15/13 Q1027
  • 240820Z 03007KT 9999 BKN007 15/13 Q1027
  • 240750Z 03005KT 9999 SCT006 BKN015 14/13 Q1027
  • 240720Z 03005KT 9999 SCT005 BKN015 14/13 Q1027
  • 240650Z VRB03KT 8000 FEW006 BKN015 13/13 Q1027

TAF TAF EGHQ
Valid from the 24 at 09:00 until the 24 at 18:00 UTC


240757Z 2409/2418 03004KT 9999 SCT020
PROB30
TEMPO 2409/2418 3000 BR BKN004
No reported NOTAMs for that airfield.



MET'MAP, your aeronautical weather chart ! - Copyright ORBIFLY December 2007 - Disclaimer

ORBIFLY MET'MAP TEAM :

Programming & Development : Alexandra Zaïnal
Concept & Development : Baudouin d'Aumeries
Co-Development & Prog : Marc-Olivier Méhu
Technical & hardware support : Manuel Goepfert

Contact : metmap@orbifly.com




SOURCES & CREDITS :

   NOAA